Slupsk, Poland

1:03 AM CEST on September 18, 2014 (GMT +0200)
IPOMORSK9 | Change Station
CLOSE
Current Station
Personal Weather Station
Location: Ustka, pomorskie
Elevation: 23 ft
Nearby Weather Stations

Elev 23 ft 54.59 °N, 16.86 °E | Updated 16 seconds ago

Clear
Clear
54.0 °F
Feels Like 54.0 °F
N
2.9
Wind Variable Wind from SE
Gusts 7.6 mph

Today
High -- | Low -- °F
--% Chance of Precip.
Yesterday
High -- | Low -- °F
Precip. -- in
6:29 AM 7:01 PM
Waning Crescent, 32% visible
Pressure 30.18 in
Visibility -9999.0 miles
Clouds
Dew Point 48 °F
Humidity 79%
Rainfall 0.00 in
Snow Depth Not available.
UV 0.0 out of 12
Pollen Not available.
Air Quality Not available.
Flu Activity Not available.
METAR EPGD 172300Z 13005KT CAVOK 10/07 Q1022

More Conditions Fewer Conditions

Pressure 30.18 in
Visibility -9999.0 miles
Clouds
Dew Point 48 °F
Humidity 79%
Rainfall 0.00 in
Snow Depth Not available.
UV 0.0 out of 12
Pollen Not available.
Air Quality Not available.
Flu Activity Not available.
METAR EPGD 172300Z 13005KT CAVOK 10/07 Q1022

More Conditions Fewer Conditions

10-Day Weather Forecast

Almanac

Astronomy

Sep. 18, 2014 Rise Set
Actual Time 6:29 AM CEST 7:01 PM CEST
Civil Twilight 5:53 AM CEST 7:37 PM CEST
Nautical Twilight 5:10 AM CEST 8:20 PM CEST
Astronomical Twilight 4:24 AM CEST 9:05 PM CEST
Moon 12:27 AM CEST (9/18) 4:15 PM CEST (9/18)
Length of Visible Light 13h 43m
Length of Day
12h 31m
Tomorrow will be 4m 21s shorter.
Waning Crescent, 32% of the Moon is Illuminated
Sep 17
Waning Crescent
Sep 24
New
Oct 1
First Quarter
Oct 8
Full
Oct 15
Last Quarter

Yesterday's Extremes

Country Highs Country Lows

Community

WunderPhotos

Upload Photos

1,754,187 photos uploaded!

Nearby

Snow Depth

Not available.

Earthquake Activity

City Distance Mag. Time & Date
No recent earthquake activity has been reported nearby.
Minimum magnitude displayed is 2.5.

Coastal Water Temperatures

Place Temperature
No Stations Reporting

Nearby Weather Stations